createdAt,value
2023-05-02T00:00:45.235Z,6.0257
2023-05-02T00:01:47.956Z,5.7863
2023-05-02T00:02:50.623Z,5.5796
2023-05-02T00:03:53.111Z,5.7352
2023-05-02T00:04:55.678Z,6.2068
2023-05-02T00:05:58.313Z,6.1045
2023-05-02T00:07:00.862Z,6.0152
2023-05-02T00:08:03.503Z,6.2809
2023-05-02T00:09:06.075Z,6.4856
2023-05-02T00:10:08.710Z,6.3187
2023-05-02T00:11:11.320Z,5.8413
2023-05-02T00:12:13.928Z,5.8328
2023-05-02T00:13:16.512Z,5.9962
2023-05-02T00:14:19.134Z,5.9056
2023-05-02T00:15:21.738Z,5.9405
2023-05-02T00:16:24.411Z,6.0803
2023-05-02T00:17:27.066Z,5.8275
2023-05-02T00:18:29.568Z,5.6839
2023-05-02T00:19:32.154Z,5.7833
2023-05-02T00:20:34.783Z,6.0174
2023-05-02T00:21:39.419Z,6.2773
2023-05-02T00:22:40.005Z,6.4401
2023-05-02T00:23:42.575Z,6.5652
2023-05-02T00:24:45.222Z,6.3866
2023-05-02T00:25:47.806Z,6.5749
2023-05-02T00:26:50.445Z,6.4017
2023-05-02T00:27:53.053Z,6.0583
2023-05-02T00:28:55.669Z,6.0555
2023-05-02T00:30:00.646Z,6.1431
2023-05-02T00:31:02.973Z,5.6586
2023-05-02T00:32:05.514Z,5.7988
2023-05-02T00:33:08.160Z,5.7771
2023-05-02T00:34:10.726Z,6.1746
2023-05-02T00:35:13.338Z,5.9407
2023-05-02T00:36:13.888Z,5.8595
2023-05-02T00:37:16.516Z,5.8350
2023-05-02T00:38:19.089Z,6.1742
2023-05-02T00:39:21.741Z,6.0752
2023-05-02T00:40:24.306Z,6.1469
2023-05-02T00:41:26.972Z,6.3245
2023-05-02T00:42:29.536Z,6.6241
2023-05-02T00:43:32.176Z,6.2854
2023-05-02T00:44:34.763Z,5.9292
2023-05-02T00:45:37.659Z,6.0597
2023-05-02T00:46:41.120Z,6.2838
2023-05-02T00:47:42.631Z,6.0673
2023-05-02T00:48:45.199Z,6.3651
2023-05-02T00:49:47.810Z,6.1329
2023-05-02T00:50:50.394Z,6.2510
2023-05-02T00:51:53.032Z,6.1286
2023-05-02T00:52:55.617Z,5.6746
2023-05-02T00:53:58.263Z,5.7921
2023-05-02T00:55:00.843Z,5.4833
2023-05-02T00:56:03.471Z,5.8754
2023-05-02T00:57:06.095Z,5.6340
2023-05-02T00:58:08.674Z,5.8862
2023-05-02T00:59:11.257Z,5.9323
2023-05-02T01:00:13.927Z,5.7533
2023-05-02T01:01:16.521Z,5.9281
2023-05-02T01:02:19.149Z,5.5005
2023-05-02T01:03:21.793Z,5.4097
2023-05-02T01:04:24.332Z,5.9970
2023-05-02T01:05:26.921Z,5.9622
2023-05-02T01:06:29.928Z,5.8280
2023-05-02T01:07:32.110Z,5.9147
2023-05-02T01:08:34.773Z,5.5420
2023-05-02T01:09:37.333Z,5.5256
2023-05-02T01:10:39.960Z,5.5925
2023-05-02T01:11:42.856Z,5.7756
2023-05-02T01:12:45.185Z,5.7750
2023-05-02T01:13:47.768Z,5.6461
2023-05-02T01:14:50.401Z,5.3786
2023-05-02T01:15:53.023Z,5.3292
2023-05-02T01:16:55.626Z,5.6293
2023-05-02T01:17:58.271Z,5.7459
2023-05-02T01:19:00.836Z,6.0753
2023-05-02T01:20:03.650Z,6.3823
2023-05-02T01:21:06.071Z,6.0416
2023-05-02T01:22:08.643Z,5.8625
2023-05-02T01:23:11.273Z,6.4047
2023-05-02T01:24:13.864Z,6.4411
2023-05-02T01:25:16.503Z,5.9975
2023-05-02T01:26:19.084Z,6.6899
2023-05-02T01:27:21.717Z,6.1210
2023-05-02T01:28:24.301Z,6.3560
2023-05-02T01:29:26.923Z,6.5344
2023-05-02T01:30:29.686Z,6.6824
2023-05-02T01:31:32.178Z,6.4719
2023-05-02T01:32:34.745Z,6.2745
2023-05-02T01:33:37.350Z,6.3846
2023-05-02T01:34:39.935Z,6.5196
2023-05-02T01:35:42.574Z,6.6727
2023-05-02T01:36:45.167Z,6.4905
2023-05-02T01:37:47.799Z,6.7860
2023-05-02T01:38:50.377Z,6.5670
2023-05-02T01:39:53.004Z,6.8258
2023-05-02T01:40:55.590Z,5.9694
2023-05-02T01:41:58.218Z,6.0803
2023-05-02T01:43:00.797Z,6.1951
2023-05-02T01:44:03.437Z,6.0310
2023-05-02T01:45:06.006Z,6.2460
2023-05-02T01:46:08.634Z,6.5006
2023-05-02T01:47:11.321Z,6.1731
2023-05-02T01:48:13.858Z,6.4276
2023-05-02T01:49:16.438Z,5.9897
2023-05-02T01:50:19.064Z,6.2016
2023-05-02T01:51:21.871Z,6.1476
2023-05-02T01:52:24.285Z,5.7059
2023-05-02T01:53:26.876Z,6.1261
2023-05-02T01:54:29.497Z,5.6597
2023-05-02T01:55:32.093Z,5.8348
2023-05-02T01:56:34.703Z,6.0766
2023-05-02T01:57:37.307Z,5.9505
2023-05-02T01:58:39.921Z,5.6155
2023-05-02T01:59:42.509Z,5.7166
2023-05-02T02:00:45.173Z,6.0566
2023-05-02T02:01:47.719Z,5.8725
2023-05-02T02:02:50.380Z,5.9614
2023-05-02T02:03:53.007Z,5.9346
2023-05-02T02:04:55.579Z,5.7590
2023-05-02T02:05:58.195Z,5.9473
2023-05-02T02:07:00.781Z,5.7891
2023-05-02T02:08:03.366Z,6.1458
2023-05-02T02:09:06.011Z,5.9720
2023-05-02T02:10:08.806Z,6.3121
2023-05-02T02:11:11.216Z,6.3709
2023-05-02T02:12:13.800Z,5.7457
2023-05-02T02:13:16.426Z,6.1858
2023-05-02T02:14:19.027Z,6.0465
2023-05-02T02:15:21.656Z,5.8679
2023-05-02T02:16:24.312Z,5.7758
2023-05-02T02:17:26.955Z,5.7461
2023-05-02T02:18:29.450Z,5.9207
2023-05-02T02:19:32.085Z,5.8578
2023-05-02T02:20:34.657Z,5.9820
2023-05-02T02:21:37.310Z,6.1714
2023-05-02T02:22:39.874Z,5.6342
2023-05-02T02:23:42.515Z,6.5301
2023-05-02T02:24:45.081Z,5.9888
2023-05-02T02:25:47.724Z,6.0691
2023-05-02T02:26:50.292Z,5.7761
2023-05-02T02:27:52.921Z,5.4479
2023-05-02T02:28:55.497Z,5.6699
2023-05-02T02:29:58.504Z,5.9074
2023-05-02T02:31:00.766Z,5.6519
2023-05-02T02:32:03.340Z,5.9661
2023-05-02T02:33:05.993Z,5.5625
2023-05-02T02:34:08.563Z,5.7522
2023-05-02T02:35:11.145Z,5.7958
2023-05-02T02:36:13.777Z,6.5490
2023-05-02T02:37:16.361Z,5.8619
2023-05-02T02:38:18.990Z,5.9005
2023-05-02T02:40:31.937Z,6.4626
2023-05-02T02:41:34.371Z,7.1183
2023-05-02T02:42:37.100Z,6.5397
2023-05-02T02:43:39.602Z,6.8224
2023-05-02T02:44:42.217Z,6.7199
2023-05-02T02:45:44.837Z,6.4889
2023-05-02T02:46:47.498Z,6.2305
2023-05-02T02:47:50.073Z,6.3710
2023-05-02T02:48:52.821Z,6.1903
2023-05-02T02:49:55.263Z,6.5554
2023-05-02T02:50:57.891Z,6.3336
2023-05-02T02:52:00.495Z,6.3227
2023-05-02T02:53:03.104Z,6.6579
2023-05-02T02:54:15.405Z,6.4351
2023-05-02T02:55:08.326Z,6.5300
2023-05-02T02:56:10.898Z,6.4758
2023-05-02T02:57:13.537Z,6.2957
2023-05-02T02:58:16.121Z,6.3082
2023-05-02T02:59:18.753Z,6.2283
2023-05-02T03:00:21.365Z,6.8744
2023-05-02T03:01:24.002Z,6.4926
2023-05-02T03:02:26.568Z,6.6032
2023-05-02T03:03:29.433Z,6.4758
2023-05-02T03:04:31.781Z,6.3180
2023-05-02T03:05:34.425Z,6.3340
2023-05-02T03:06:37.078Z,6.3226
2023-05-02T03:07:39.630Z,6.3130
2023-05-02T03:08:42.213Z,6.4849
2023-05-02T03:09:44.941Z,6.4387
2023-05-02T03:10:47.437Z,6.4207
2023-05-02T03:11:50.105Z,6.1342
2023-05-02T03:12:52.646Z,5.9921
2023-05-02T03:13:55.273Z,6.1647
2023-05-02T03:14:57.876Z,6.1473
2023-05-02T03:16:00.521Z,5.3390
2023-05-02T03:17:03.073Z,5.8249
2023-05-02T03:18:05.720Z,6.0211
2023-05-02T03:19:08.296Z,5.4733
2023-05-02T03:20:10.928Z,5.5660
2023-05-02T03:21:13.519Z,5.7221
2023-05-02T03:22:16.190Z,5.5846
2023-05-02T03:23:18.732Z,5.8602
2023-05-02T03:24:21.431Z,5.6127
2023-05-02T03:25:23.929Z,5.5718
2023-05-02T03:26:26.565Z,5.4328
2023-05-02T03:27:29.150Z,5.3824
2023-05-02T03:28:31.801Z,5.5163
2023-05-02T03:29:34.374Z,5.8499
2023-05-02T03:30:37.002Z,6.0091
2023-05-02T03:31:39.662Z,6.4200
2023-05-02T03:32:42.242Z,6.1564
2023-05-02T03:33:44.805Z,6.4718
2023-05-02T03:34:47.436Z,6.0846
2023-05-02T03:35:50.025Z,6.1994
2023-05-02T03:36:54.108Z,5.6521
2023-05-02T03:37:55.277Z,5.8512
2023-05-02T03:38:57.860Z,6.2124
2023-05-02T03:40:00.946Z,5.8236
2023-05-02T03:41:03.083Z,6.0822
2023-05-02T03:42:05.694Z,5.0303
2023-05-02T03:43:08.280Z,5.5736
2023-05-02T03:46:04.451Z,5.1203
2023-05-02T03:47:07.056Z,5.3373
2023-05-02T03:48:09.747Z,5.6632
2023-05-02T03:50:56.212Z,5.7833
2023-05-02T03:53:13.861Z,5.6366
2023-05-02T03:54:16.472Z,5.8706
2023-05-02T03:55:19.087Z,6.0962
2023-05-02T03:56:21.679Z,5.6987
2023-05-02T03:57:24.301Z,5.6725
2023-05-02T03:58:26.899Z,5.3589
2023-05-02T03:59:29.534Z,5.7719
2023-05-02T04:00:32.136Z,5.4722
2023-05-02T04:01:34.785Z,5.3510
2023-05-02T04:02:37.491Z,5.8552
2023-05-02T04:03:40.048Z,5.5456
2023-05-02T04:04:42.641Z,5.3567
2023-05-02T04:05:45.208Z,5.4958
2023-05-02T04:06:47.914Z,5.6361
2023-05-02T04:07:50.445Z,5.6255
2023-05-02T04:08:53.046Z,5.9823
2023-05-02T04:09:55.661Z,6.0435
2023-05-02T04:10:58.256Z,5.4569
2023-05-02T04:12:01.215Z,4.8753
2023-05-02T04:13:03.478Z,5.6655
2023-05-02T04:14:06.194Z,5.6265
2023-05-02T04:15:08.693Z,5.3256
2023-05-02T04:16:11.328Z,5.5849
2023-05-02T04:17:14.009Z,5.1925
2023-05-02T04:18:16.610Z,4.8332
2023-05-02T04:19:19.126Z,5.3696
2023-05-02T04:20:21.755Z,5.6752
2023-05-02T04:21:24.332Z,5.0778
2023-05-02T04:22:26.976Z,5.5400
2023-05-02T04:23:29.567Z,5.6061
2023-05-02T04:24:32.202Z,5.2853
2023-05-02T04:25:34.779Z,5.4244
2023-05-02T04:26:37.416Z,5.2523
2023-05-02T04:27:40.001Z,5.5950
2023-05-02T04:28:42.633Z,5.2319
2023-05-02T04:29:45.221Z,5.0844
2023-05-02T04:30:47.921Z,5.2630
2023-05-02T04:31:50.440Z,5.2100
2023-05-02T04:32:53.430Z,5.4634
2023-05-02T04:35:01.365Z,5.0747
2023-05-02T04:36:03.992Z,5.5238
2023-05-02T04:37:06.585Z,5.7733
2023-05-02T04:38:09.231Z,6.0470
2023-05-02T04:39:12.119Z,5.9263
2023-05-02T04:40:14.475Z,6.1655
2023-05-02T04:41:17.058Z,6.6106
2023-05-02T04:42:19.701Z,6.4180
2023-05-02T04:43:24.424Z,6.1503
2023-05-02T04:44:24.908Z,5.8067
2023-05-02T04:45:27.609Z,5.6938
2023-05-02T04:46:30.175Z,5.8960
2023-05-02T04:47:32.749Z,6.1768
2023-05-02T04:48:35.406Z,6.4157
2023-05-02T04:49:37.951Z,6.8907
2023-05-02T04:50:40.607Z,6.1624
2023-05-02T04:51:43.189Z,6.5905
2023-05-02T04:52:45.825Z,7.0477
2023-05-02T04:53:48.513Z,6.2809
2023-05-02T04:54:51.060Z,6.2695
2023-05-02T04:55:53.649Z,6.4022
2023-05-02T04:56:56.298Z,6.3692
2023-05-02T04:57:58.897Z,7.4029
2023-05-02T04:59:01.518Z,7.4299
2023-05-02T05:00:04.151Z,7.5770
2023-05-02T05:01:06.775Z,7.1003
2023-05-02T05:02:09.385Z,7.1197
2023-05-02T05:03:12.032Z,7.2079
2023-05-02T05:04:14.810Z,8.0070
2023-05-02T05:05:17.256Z,7.4589
2023-05-02T05:06:19.878Z,7.9192
2023-05-02T05:07:22.527Z,7.8648
2023-05-02T05:08:25.072Z,7.4828
2023-05-02T05:09:27.654Z,7.6202
2023-05-02T05:10:30.322Z,7.7725
2023-05-02T05:11:32.888Z,8.7506
2023-05-02T05:12:35.589Z,8.5583
2023-05-02T05:13:38.138Z,8.5014
2023-05-02T05:16:00.595Z,9.1546
2023-05-02T05:17:03.209Z,10.6384
2023-05-02T05:18:05.851Z,10.2208
2023-05-02T05:19:08.400Z,11.4055
2023-05-02T05:20:10.998Z,12.8514
2023-05-02T05:21:13.624Z,11.3195
2023-05-02T05:22:16.232Z,11.4111
2023-05-02T05:23:18.955Z,10.8517
2023-05-02T05:24:21.431Z,11.0108
2023-05-02T05:25:24.064Z,11.1255
2023-05-02T05:26:26.660Z,10.7498
2023-05-02T05:27:29.431Z,11.1693
2023-05-02T05:28:31.887Z,10.8147
2023-05-02T05:29:34.520Z,11.7470
2023-05-02T05:30:37.117Z,12.0960
2023-05-02T05:31:39.819Z,12.4655
2023-05-02T05:32:42.376Z,12.2825
2023-05-02T05:33:45.182Z,11.9169
2023-05-02T05:36:12.323Z,10.8709
2023-05-02T05:37:14.840Z,12.8123
2023-05-02T05:38:17.462Z,12.5288
2023-05-02T05:39:20.060Z,12.3954
2023-05-02T05:40:22.697Z,11.5012
2023-05-02T05:41:25.344Z,12.0919
2023-05-02T05:42:27.994Z,12.6363
2023-05-02T05:43:30.570Z,11.9991
2023-05-02T05:44:33.203Z,12.1938
2023-05-02T05:45:35.809Z,14.5383
2023-05-02T05:46:39.500Z,15.1687
2023-05-02T05:47:42.081Z,17.8518
2023-05-02T05:48:45.621Z,22.6324
2023-05-02T05:49:46.840Z,27.8579
2023-05-02T05:50:48.794Z,16.1026
2023-05-02T05:51:51.388Z,11.7356
2023-05-02T05:52:54.017Z,10.8472
2023-05-02T05:53:56.601Z,10.2651
2023-05-02T05:54:59.234Z,9.8934
2023-05-02T05:56:01.834Z,9.5758
2023-05-02T05:57:04.452Z,10.2220
2023-05-02T05:58:07.028Z,10.2114
2023-05-02T05:59:09.679Z,10.2293
2023-05-02T06:00:12.253Z,9.5056
2023-05-02T06:01:15.184Z,8.9873
2023-05-02T06:02:17.469Z,8.8673
2023-05-02T06:03:20.152Z,9.1832
2023-05-02T06:04:22.736Z,8.8152
2023-05-02T06:05:25.311Z,9.2317
2023-05-02T06:06:27.913Z,9.2244
2023-05-02T06:07:30.518Z,8.8112
2023-05-02T06:08:33.110Z,8.8434
2023-05-02T06:09:35.736Z,8.8270
2023-05-02T06:10:38.317Z,9.2448
2023-05-02T06:11:40.965Z,9.6173
2023-05-02T06:12:45.200Z,9.4910
2023-05-02T06:13:46.164Z,10.2092
2023-05-02T06:14:48.907Z,10.1011
2023-05-02T06:15:51.421Z,10.1213
2023-05-02T06:16:53.961Z,9.8490
2023-05-02T06:17:56.642Z,9.3982
2023-05-02T06:18:59.180Z,9.3513
2023-05-02T06:20:02.163Z,9.5248
2023-05-02T06:21:04.599Z,9.3116
2023-05-02T06:22:07.002Z,9.1874
2023-05-02T06:23:09.983Z,9.6710
2023-05-02T06:24:12.206Z,9.3116
2023-05-02T06:25:14.783Z,9.2438
2023-05-02T06:26:17.416Z,9.4080
2023-05-02T06:27:19.993Z,9.6469
2023-05-02T06:28:22.624Z,9.6308
2023-05-02T06:29:25.197Z,9.5367
2023-05-02T06:30:27.905Z,9.1162
2023-05-02T06:31:30.470Z,9.2786
2023-05-02T06:32:33.074Z,9.1660
2023-05-02T06:33:35.631Z,8.7925
2023-05-02T06:34:38.243Z,9.0110
2023-05-02T06:35:40.833Z,8.8581
2023-05-02T06:36:43.458Z,9.6154
2023-05-02T06:37:46.061Z,9.1320
2023-05-02T06:38:48.659Z,9.1264
2023-05-02T06:41:30.287Z,8.3632
2023-05-02T06:42:32.870Z,9.8844
2023-05-02T06:43:35.499Z,9.4240
2023-05-02T06:44:38.075Z,8.5744
2023-05-02T06:45:40.722Z,8.7012
2023-05-02T06:46:43.344Z,8.9660
2023-05-02T06:47:45.970Z,8.8489
2023-05-02T06:49:53.806Z,8.3246
2023-05-02T06:50:56.402Z,8.8180
2023-05-02T06:51:59.034Z,9.0005
2023-05-02T06:53:01.606Z,9.2923
2023-05-02T06:54:04.235Z,8.7312
2023-05-02T06:55:06.817Z,8.9972
2023-05-02T06:56:09.454Z,8.3915
2023-05-02T06:57:12.038Z,8.8065
2023-05-02T07:00:08.085Z,7.7510
2023-05-02T07:01:10.700Z,8.8846
2023-05-02T07:02:13.310Z,8.3620
2023-05-02T07:03:15.871Z,8.2660
2023-05-02T07:04:18.514Z,8.0263
2023-05-02T07:05:21.067Z,7.9284
2023-05-02T07:06:23.717Z,8.1546
2023-05-02T07:07:26.275Z,7.5406
2023-05-02T07:08:28.914Z,7.8567
2023-05-02T07:09:31.499Z,6.9922
2023-05-02T07:10:34.137Z,6.9924
2023-05-02T07:11:36.729Z,6.8934
2023-05-02T07:12:39.330Z,6.6869
2023-05-02T07:13:41.926Z,6.6572
2023-05-02T07:14:44.526Z,6.9245
2023-05-02T07:15:47.109Z,7.4298
2023-05-02T07:16:49.822Z,7.1001
2023-05-02T07:17:52.378Z,6.9048
2023-05-02T07:18:54.956Z,7.0221
2023-05-02T07:19:57.518Z,6.8540
2023-05-02T07:21:00.198Z,7.2945
2023-05-02T07:22:02.804Z,7.4058
2023-05-02T07:23:05.365Z,7.5950
2023-05-02T07:24:07.945Z,7.9984
2023-05-02T07:25:10.570Z,8.2783
2023-05-02T07:26:13.132Z,7.6782
2023-05-02T07:27:15.756Z,7.9927
2023-05-02T07:28:18.335Z,8.1962
2023-05-02T07:29:20.978Z,8.4175
2023-05-02T07:30:23.531Z,8.6592
2023-05-02T07:31:26.196Z,8.7460
2023-05-02T07:32:28.787Z,9.0723
2023-05-02T07:33:31.564Z,8.8997
2023-05-02T07:34:33.944Z,9.4693
2023-05-02T07:35:36.554Z,8.8922
2023-05-02T07:36:39.140Z,9.6834
2023-05-02T07:37:41.749Z,8.8080
2023-05-02T07:38:44.459Z,10.0824
2023-05-02T07:39:46.968Z,9.9683
2023-05-02T07:40:49.542Z,10.0563
2023-05-02T07:41:52.154Z,10.9528
2023-05-02T07:42:54.749Z,11.0901
2023-05-02T07:43:57.361Z,10.3427
2023-05-02T07:44:59.968Z,10.0588
2023-05-02T07:48:01.045Z,8.8645
2023-05-02T07:49:03.488Z,9.8814
2023-05-02T07:50:06.107Z,10.3638
2023-05-02T07:51:08.687Z,10.1034
2023-05-02T07:52:11.311Z,10.8776
2023-05-02T07:53:13.891Z,10.2966
2023-05-02T07:54:16.508Z,10.3951
2023-05-02T07:55:19.370Z,10.1466
2023-05-02T07:56:21.734Z,11.0793
2023-05-02T07:57:24.297Z,11.0749
2023-05-02T07:58:26.908Z,10.8501
2023-05-02T07:59:29.477Z,11.0373
2023-05-02T08:00:32.121Z,11.2096
2023-05-02T08:01:34.679Z,10.9834
2023-05-02T08:02:37.455Z,10.8891
2023-05-02T08:03:40.016Z,11.8615
2023-05-02T08:06:07.022Z,10.5313
2023-05-02T08:07:09.606Z,11.9432
2023-05-02T08:08:12.185Z,11.8377
2023-05-02T08:09:14.812Z,11.9442
2023-05-02T08:10:17.395Z,11.7182
2023-05-02T08:11:21.865Z,11.8753
2023-05-02T08:12:22.605Z,11.5798
2023-05-02T08:13:25.237Z,11.3548
2023-05-02T08:14:27.782Z,11.2321
2023-05-02T08:15:30.418Z,11.8524
2023-05-02T08:16:33.034Z,11.5830
2023-05-02T08:17:35.664Z,12.4094
2023-05-02T08:18:38.337Z,12.2675
2023-05-02T08:19:40.813Z,11.4349
2023-05-02T08:20:43.362Z,11.2239
2023-05-02T08:21:45.982Z,11.7635
2023-05-02T08:22:48.558Z,11.6616
2023-05-02T08:23:51.170Z,11.8571
2023-05-02T08:24:53.749Z,11.5490
2023-05-02T08:25:56.370Z,11.9660
2023-05-02T08:26:58.942Z,11.4279
2023-05-02T08:28:01.576Z,11.7031
2023-05-02T08:29:04.143Z,12.0640
2023-05-02T08:30:07.086Z,12.1513
2023-05-02T08:31:09.377Z,12.1006
2023-05-02T08:32:12.051Z,11.9777
2023-05-02T08:33:14.615Z,11.1775
2023-05-02T08:34:17.134Z,11.9672
2023-05-02T08:35:19.685Z,12.4083
2023-05-02T08:36:22.314Z,11.7753
2023-05-02T08:37:24.876Z,12.8357
2023-05-02T08:38:27.507Z,12.0259
2023-05-02T08:39:30.071Z,11.3305
2023-05-02T08:40:40.893Z,11.9841
2023-05-02T08:41:35.269Z,12.2656
2023-05-02T08:42:37.893Z,11.8283
2023-05-02T08:43:40.484Z,11.3885
2023-05-02T08:44:43.079Z,11.6856
2023-05-02T08:45:45.661Z,11.1255
2023-05-02T08:46:48.357Z,11.3811
2023-05-02T08:47:50.949Z,11.7782
2023-05-02T08:48:53.470Z,11.6326
2023-05-02T08:49:56.032Z,11.7333
2023-05-02T08:50:58.657Z,11.8795
2023-05-02T08:52:01.229Z,12.1418
2023-05-02T08:53:03.847Z,11.5862
2023-05-02T08:54:06.423Z,11.4049
2023-05-02T08:55:09.060Z,11.6055
2023-05-02T08:56:11.622Z,11.9301
2023-05-02T08:57:14.248Z,12.1897
2023-05-02T08:58:17.739Z,11.9035
2023-05-02T08:59:19.444Z,11.3196
2023-05-02T09:00:22.056Z,12.1052
2023-05-02T09:01:24.789Z,11.7634
2023-05-02T09:02:27.212Z,10.8385
2023-05-02T09:03:29.820Z,11.3856
2023-05-02T09:04:32.422Z,11.5396
2023-05-02T09:05:35.002Z,11.4417
2023-05-02T09:06:37.679Z,11.5602
2023-05-02T09:07:40.195Z,12.0454
2023-05-02T09:08:42.765Z,11.8468
2023-05-02T09:11:24.327Z,10.0397
2023-05-02T09:12:26.925Z,11.8044
2023-05-02T09:13:29.498Z,12.4111
2023-05-02T09:14:32.124Z,11.9307
2023-05-02T09:15:34.892Z,12.3260
2023-05-02T09:16:37.362Z,12.3655
2023-05-02T09:17:39.995Z,12.6208
2023-05-02T09:18:42.542Z,12.5119
2023-05-02T09:19:45.094Z,12.2779
2023-05-02T09:20:47.714Z,11.7677
2023-05-02T09:21:50.290Z,12.2010
2023-05-02T09:22:52.928Z,12.1143
2023-05-02T09:23:55.526Z,11.6619
2023-05-02T09:24:58.384Z,12.4578
2023-05-02T09:26:00.661Z,12.0861
2023-05-02T09:27:03.497Z,11.9964
2023-05-02T09:28:05.852Z,12.1689
2023-05-02T09:29:08.477Z,12.2083
2023-05-02T09:30:11.053Z,11.8739
2023-05-02T09:31:15.366Z,13.0778
2023-05-02T09:32:16.277Z,12.2998
2023-05-02T09:33:19.330Z,11.6242
2023-05-02T09:34:21.593Z,12.5174
2023-05-02T09:35:24.044Z,11.2904
2023-05-02T09:36:26.611Z,11.9066
2023-05-02T09:37:29.228Z,10.9703
2023-05-02T09:38:31.806Z,11.4541
2023-05-02T09:39:34.436Z,11.5500
2023-05-02T09:40:36.993Z,11.8388
2023-05-02T09:41:39.621Z,11.7553
2023-05-02T09:42:42.200Z,11.3483
2023-05-02T09:43:44.816Z,11.0179
2023-05-02T09:44:47.421Z,11.6399
2023-05-02T09:45:50.073Z,11.5887
2023-05-02T09:46:52.586Z,10.6629
2023-05-02T09:47:55.313Z,10.9952
2023-05-02T09:48:57.776Z,11.4341
2023-05-02T09:50:00.402Z,10.9253
2023-05-02T09:51:02.963Z,11.3420
2023-05-02T09:52:05.573Z,12.1431
2023-05-02T09:53:08.416Z,12.5873
2023-05-02T09:54:10.784Z,11.5436
2023-05-02T09:55:13.352Z,11.8884
2023-05-02T09:56:15.981Z,12.6104
2023-05-02T09:57:18.543Z,12.5896
2023-05-02T09:58:21.174Z,11.9846
2023-05-02T09:59:23.881Z,10.0808
2023-05-02T10:00:26.349Z,9.7736
2023-05-02T10:01:28.959Z,10.0373
2023-05-02T10:02:31.583Z,10.7125
2023-05-02T10:04:53.796Z,9.9421
2023-05-02T10:05:56.357Z,10.4602
2023-05-02T10:06:58.994Z,10.4539
2023-05-02T10:08:01.552Z,11.4055
2023-05-02T10:09:04.174Z,11.1453
2023-05-02T10:10:06.758Z,11.2842
2023-05-02T10:11:09.375Z,12.1244
2023-05-02T10:12:12.157Z,11.4494
2023-05-02T10:13:14.563Z,11.9960
2023-05-02T10:14:17.150Z,12.3959
2023-05-02T10:15:19.770Z,11.4643
2023-05-02T10:16:22.402Z,11.8909
2023-05-02T10:17:24.973Z,11.6251
2023-05-02T10:18:27.527Z,12.0221
2023-05-02T10:19:30.111Z,11.8476
2023-05-02T10:20:32.696Z,11.5199
2023-05-02T10:21:35.305Z,11.5189
2023-05-02T10:22:37.866Z,12.3283
2023-05-02T10:23:40.481Z,11.8734
2023-05-02T10:24:43.054Z,12.3875
2023-05-02T10:25:45.686Z,12.4174
2023-05-02T10:26:48.282Z,11.6468
2023-05-02T10:27:50.869Z,11.3248
2023-05-02T10:28:53.438Z,10.6520
2023-05-02T10:29:56.056Z,10.3677
2023-05-02T10:30:58.636Z,9.6892
2023-05-02T10:32:01.288Z,10.5028
2023-05-02T10:33:03.910Z,10.2791
2023-05-02T10:34:06.684Z,10.0768
2023-05-02T10:35:10.255Z,10.5556
2023-05-02T10:36:11.620Z,10.5011
2023-05-02T10:37:14.179Z,10.4748
2023-05-02T10:38:16.804Z,10.8851
2023-05-02T10:39:19.378Z,11.0831
2023-05-02T10:40:21.984Z,10.9312
2023-05-02T10:41:24.553Z,10.3892
2023-05-02T10:42:28.381Z,11.0663
2023-05-02T10:44:54.221Z,9.3811
2023-05-02T10:45:56.794Z,9.9535
2023-05-02T10:46:59.634Z,10.0325
2023-05-02T10:48:02.006Z,9.2311
2023-05-02T10:49:04.595Z,10.2069
2023-05-02T10:50:07.173Z,9.5801
2023-05-02T10:51:09.941Z,9.8171
2023-05-02T10:52:12.356Z,9.4974
2023-05-02T10:53:14.981Z,10.3889
2023-05-02T10:54:17.559Z,10.4660
2023-05-02T10:56:49.439Z,10.0655
2023-05-02T10:57:52.008Z,11.3303
2023-05-02T10:58:54.637Z,10.9756
2023-05-02T10:59:57.217Z,10.9855
2023-05-02T11:00:59.908Z,11.5035
2023-05-02T11:02:04.019Z,11.0397
2023-05-02T11:03:05.090Z,10.8970
2023-05-02T11:04:07.627Z,10.3041
2023-05-02T11:05:10.264Z,10.6902
2023-05-02T11:06:12.849Z,10.8626
2023-05-02T11:07:15.414Z,11.3533
2023-05-02T11:08:20.210Z,11.4707
2023-05-02T11:09:20.612Z,10.6243
2023-05-02T11:10:23.191Z,10.9136
2023-05-02T11:11:25.831Z,11.0231
2023-05-02T11:12:28.367Z,10.5655
2023-05-02T11:13:30.987Z,9.9144
2023-05-02T11:14:33.603Z,9.8202
2023-05-02T11:15:36.182Z,9.7525
2023-05-02T11:16:38.781Z,9.2846
2023-05-02T11:17:41.384Z,9.5581
2023-05-02T11:18:43.942Z,9.8904
2023-05-02T11:19:46.565Z,9.9811
2023-05-02T11:20:49.129Z,9.4715
2023-05-02T11:21:51.757Z,9.6187
2023-05-02T11:22:54.323Z,9.3358
2023-05-02T11:23:56.948Z,8.9106
2023-05-02T11:24:59.726Z,9.1102
2023-05-02T11:26:02.146Z,9.7201
2023-05-02T11:27:04.720Z,8.7638
2023-05-02T11:28:07.566Z,7.8228
2023-05-02T11:29:09.909Z,7.9953
2023-05-02T11:30:12.785Z,8.7344
2023-05-02T11:31:15.114Z,9.5996
2023-05-02T11:32:17.798Z,9.8498
2023-05-02T11:33:20.475Z,9.7157
2023-05-02T11:34:22.932Z,9.3231
2023-05-02T11:35:25.477Z,9.3314
2023-05-02T11:36:29.161Z,9.6993
2023-05-02T11:37:30.923Z,9.4009
2023-05-02T11:38:33.332Z,9.1092
2023-05-02T11:39:35.888Z,8.9053
2023-05-02T11:40:38.521Z,8.4228
2023-05-02T11:41:41.084Z,8.6860
2023-05-02T11:42:43.710Z,8.5861
2023-05-02T11:43:46.290Z,9.0748
2023-05-02T11:44:48.891Z,9.5772
2023-05-02T11:45:51.506Z,10.0649
2023-05-02T11:46:54.088Z,10.3722
2023-05-02T11:47:58.322Z,10.0969
2023-05-02T11:48:59.268Z,9.7936
2023-05-02T11:50:01.841Z,10.2058
2023-05-02T11:52:38.521Z,10.6163
2023-05-02T11:53:41.101Z,10.7341
2023-05-02T11:54:43.728Z,9.9125
2023-05-02T11:55:46.299Z,9.7925
2023-05-02T11:56:48.933Z,9.4024
2023-05-02T11:57:51.767Z,9.4505
2023-05-02T11:58:54.120Z,10.0483
2023-05-02T11:59:56.680Z,8.9873
2023-05-02T12:00:59.305Z,8.5715
2023-05-02T12:02:01.882Z,9.0647
2023-05-02T12:03:04.562Z,9.6482
2023-05-02T12:04:07.107Z,9.0405
2023-05-02T12:05:09.693Z,9.0632
2023-05-02T12:06:12.890Z,8.8826
2023-05-02T12:07:14.935Z,9.4395
2023-05-02T12:08:17.431Z,9.7241
2023-05-02T12:09:20.062Z,9.2375
2023-05-02T12:10:22.630Z,9.4713
2023-05-02T12:11:25.425Z,8.5463
2023-05-02T12:12:27.850Z,9.0678
2023-05-02T12:13:30.461Z,9.0153
2023-05-02T12:14:33.031Z,9.0787
2023-05-02T12:15:35.645Z,8.9835
2023-05-02T12:16:38.348Z,9.6724
2023-05-02T12:17:40.890Z,9.6720
2023-05-02T12:18:43.418Z,8.9561
2023-05-02T12:19:46.393Z,10.1861
2023-05-02T12:20:48.615Z,10.3003
2023-05-02T12:23:20.504Z,10.1205
2023-05-02T12:24:23.078Z,11.2247
2023-05-02T12:25:25.733Z,10.9234
2023-05-02T12:26:28.281Z,10.4733
2023-05-02T12:27:30.913Z,10.1890
2023-05-02T12:28:33.480Z,10.6031
2023-05-02T12:29:36.115Z,10.7116
2023-05-02T12:30:38.664Z,10.9237
2023-05-02T12:31:41.355Z,10.0229
2023-05-02T12:32:43.933Z,10.3978
2023-05-02T12:33:46.467Z,10.0386
2023-05-02T12:34:49.045Z,10.3452
2023-05-02T12:35:51.660Z,10.5123
2023-05-02T12:36:54.242Z,10.4962
2023-05-02T12:37:57.199Z,11.0235
2023-05-02T12:38:59.825Z,10.3773
2023-05-02T12:40:02.206Z,10.2456
2023-05-02T12:41:04.615Z,10.5833
2023-05-02T12:42:07.233Z,10.5595
2023-05-02T12:43:09.800Z,10.0128
2023-05-02T12:44:12.440Z,10.1590
2023-05-02T12:45:15.002Z,9.7385
2023-05-02T12:46:17.674Z,9.5466
2023-05-02T12:47:20.281Z,10.0117
2023-05-02T12:48:22.807Z,9.5814
2023-05-02T12:49:25.488Z,10.0305
2023-05-02T12:50:27.975Z,8.9423
2023-05-02T12:51:30.582Z,8.7369
2023-05-02T12:52:33.152Z,9.0061
2023-05-02T12:53:35.766Z,9.5893
2023-05-02T12:54:38.336Z,9.3982
2023-05-02T12:55:40.958Z,9.5984
2023-05-02T12:56:43.772Z,9.4420
2023-05-02T12:57:46.134Z,9.3503
2023-05-02T12:58:48.700Z,9.9978
2023-05-02T12:59:51.326Z,9.6205
2023-05-02T13:00:53.909Z,9.9608
2023-05-02T13:01:56.532Z,9.5631
2023-05-02T13:02:59.174Z,8.7571
2023-05-02T13:04:01.754Z,9.0795
2023-05-02T13:05:04.273Z,8.5651
2023-05-02T13:06:07.006Z,9.7236
2023-05-02T13:07:09.466Z,9.4398
2023-05-02T13:08:12.078Z,9.3840
2023-05-02T13:09:14.633Z,10.8112
2023-05-02T13:10:17.260Z,11.0472
2023-05-02T13:11:19.827Z,9.5982
2023-05-02T13:12:22.448Z,10.0690
2023-05-02T13:13:25.063Z,9.9512
2023-05-02T13:14:27.655Z,9.3131
2023-05-02T13:15:30.234Z,9.3601
2023-05-02T13:16:32.922Z,10.0957
2023-05-02T13:17:35.562Z,10.4572
2023-05-02T13:18:38.069Z,10.2842
2023-05-02T13:19:44.603Z,10.6893